X  Kiinni Metar Aviation säätiedot     YMML Melbourne International Airport
Lämpötila
18°C Lämpötila
9°C Kastepiste
56% Kosteus



Tuuli
8 MPH
13 KM/T
4 M/S
7 KTS



200°
EEL
Nykyiset olosuhteet

Enimmäkseen pilvistä Enimmäkseen pilvistä
Paine 1009.92 (hPa) - 29.82 (inHg)
Näkyvyys 6.2 (maili) - 10 (km)
Lentokenttä
Lentokentän koodi YMML

Sijainti: Melbourne International Airport
Etäisyys: 18 (mi)

Metar:
YMML 060100Z 20007KT 150V220 9999 BKN037 BKN057 18/09 Q1010

Aika: 06-12-2022 12:00 AEDT